In Rescue
 
Open Full Screen Window  High Contrast Mode
Wind Gusting 00 knots
06
May 13, 2021 11:07 AM EDT
Weather Information
Wind Direction
  280 °
Wind Speed
  06 kt (7 mph)
Wind Gust
  00 kt (0 mph)
Altimeter
30.40 in
Visibility
10 SM
Temperature
16° C
61° F
Dewpoint
-04° C
25° F
Humidity
25%
1hr Rain Fall
00.00 in.
24hr Rain Fall
00.00 in.
Sky Condition
Clear
VFR

METAR KMOP 131507Z AUTO 28006KT 10SM CLR 16/M04 A3040 RMK AO2 T01561038

FAA Disclaimer: The data displayed is for advisory purposes only and is not to be used for flight planning or operations.